sensor_id;sensor_type;location;lat;lon;timestamp;P1;durP1;ratioP1;P2;durP2;ratioP2
14984;SDS011;7588;62.368;25.902;2023-07-20T00:01:57;428.77;;;404.00;;
14984;SDS011;7588;62.368;25.902;2023-07-20T00:04:23;447.90;;;422.20;;
14984;SDS011;7588;62.368;25.902;2023-07-20T00:06:48;453.40;;;428.00;;
14984;SDS011;7588;62.368;25.902;2023-07-20T00:09:14;453.93;;;428.37;;
14984;SDS011;7588;62.368;25.902;2023-07-20T00:11:39;452.53;;;427.53;;
14984;SDS011;7588;62.368;25.902;2023-07-20T00:14:05;443.57;;;418.07;;
14984;SDS011;7588;62.368;25.902;2023-07-20T00:16:31;399.47;;;376.73;;
14984;SDS011;7588;62.368;25.902;2023-07-20T00:18:57;443.60;;;419.17;;
14984;SDS011;7588;62.368;25.902;2023-07-20T00:21:23;426.97;;;402.70;;
14984;SDS011;7588;62.368;25.902;2023-07-20T00:23:50;419.10;;;395.93;;
14984;SDS011;7588;62.368;25.902;2023-07-20T00:26:16;422.43;;;398.57;;
14984;SDS011;7588;62.368;25.902;2023-07-20T00:28:42;461.37;;;435.20;;
14984;SDS011;7588;62.368;25.902;2023-07-20T00:31:08;470.00;;;443.67;;
14984;SDS011;7588;62.368;25.902;2023-07-20T00:33:34;455.90;;;429.53;;
14984;SDS011;7588;62.368;25.902;2023-07-20T00:36:00;453.00;;;426.33;;
14984;SDS011;7588;62.368;25.902;2023-07-20T00:38:25;449.60;;;423.23;;
14984;SDS011;7588;62.368;25.902;2023-07-20T00:40:51;464.30;;;437.70;;
14984;SDS011;7588;62.368;25.902;2023-07-20T00:43:17;442.70;;;417.47;;
14984;SDS011;7588;62.368;25.902;2023-07-20T00:45:42;476.97;;;450.33;;
14984;SDS011;7588;62.368;25.902;2023-07-20T00:48:09;460.53;;;434.17;;
14984;SDS011;7588;62.368;25.902;2023-07-20T00:50:36;437.13;;;412.03;;
14984;SDS011;7588;62.368;25.902;2023-07-20T00:53:02;459.80;;;433.97;;
14984;SDS011;7588;62.368;25.902;2023-07-20T00:55:32;492.83;;;464.37;;
14984;SDS011;7588;62.368;25.902;2023-07-20T00:57:58;493.47;;;465.17;;
14984;SDS011;7588;62.368;25.902;2023-07-20T01:00:24;472.93;;;445.10;;
14984;SDS011;7588;62.368;25.902;2023-07-20T01:02:50;503.30;;;473.80;;
14984;SDS011;7588;62.368;25.902;2023-07-20T01:05:17;471.63;;;444.50;;
14984;SDS011;7588;62.368;25.902;2023-07-20T01:07:46;471.70;;;444.73;;
14984;SDS011;7588;62.368;25.902;2023-07-20T01:10:33;408.57;;;385.27;;
14984;SDS011;7588;62.368;25.902;2023-07-20T01:13:05;453.10;;;427.17;;
14984;SDS011;7588;62.368;25.902;2023-07-20T01:15:34;444.97;;;420.33;;
14984;SDS011;7588;62.368;25.902;2023-07-20T01:18:00;425.53;;;401.03;;
14984;SDS011;7588;62.368;25.902;2023-07-20T01:20:26;451.53;;;425.13;;
14984;SDS011;7588;62.368;25.902;2023-07-20T01:23:06;450.10;;;424.37;;
14984;SDS011;7588;62.368;25.902;2023-07-20T01:33:32;419.90;;;396.97;;
14984;SDS011;7588;62.368;25.902;2023-07-20T01:35:59;449.07;;;423.33;;
14984;SDS011;7588;62.368;25.902;2023-07-20T01:38:26;432.33;;;407.90;;
14984;SDS011;7588;62.368;25.902;2023-07-20T01:40:52;456.30;;;429.90;;
14984;SDS011;7588;62.368;25.902;2023-07-20T01:43:18;440.97;;;416.17;;
14984;SDS011;7588;62.368;25.902;2023-07-20T01:45:44;422.67;;;398.83;;
14984;SDS011;7588;62.368;25.902;2023-07-20T01:48:10;460.73;;;435.30;;
14984;SDS011;7588;62.368;25.902;2023-07-20T01:50:36;459.43;;;433.63;;
14984;SDS011;7588;62.368;25.902;2023-07-20T01:53:02;476.67;;;449.33;;
14984;SDS011;7588;62.368;25.902;2023-07-20T01:55:28;462.70;;;436.77;;
14984;SDS011;7588;62.368;25.902;2023-07-20T01:57:54;468.30;;;441.50;;
14984;SDS011;7588;62.368;25.902;2023-07-20T02:00:20;472.27;;;445.87;;
14984;SDS011;7588;62.368;25.902;2023-07-20T02:02:49;472.33;;;445.80;;
14984;SDS011;7588;62.368;25.902;2023-07-20T02:05:15;479.97;;;451.97;;
14984;SDS011;7588;62.368;25.902;2023-07-20T02:07:41;474.87;;;448.13;;
14984;SDS011;7588;62.368;25.902;2023-07-20T02:10:07;492.33;;;463.73;;
14984;SDS011;7588;62.368;25.902;2023-07-20T02:12:33;501.20;;;472.67;;
14984;SDS011;7588;62.368;25.902;2023-07-20T02:14:58;447.70;;;421.17;;
14984;SDS011;7588;62.368;25.902;2023-07-20T02:17:24;465.10;;;438.13;;
14984;SDS011;7588;62.368;25.902;2023-07-20T02:19:52;499.53;;;470.27;;
14984;SDS011;7588;62.368;25.902;2023-07-20T02:22:18;497.20;;;468.73;;
14984;SDS011;7588;62.368;25.902;2023-07-20T02:24:44;509.33;;;480.03;;
14984;SDS011;7588;62.368;25.902;2023-07-20T02:27:09;483.20;;;454.23;;
14984;SDS011;7588;62.368;25.902;2023-07-20T02:29:35;506.70;;;476.97;;
14984;SDS011;7588;62.368;25.902;2023-07-20T02:32:01;524.93;;;494.17;;
14984;SDS011;7588;62.368;25.902;2023-07-20T02:34:27;503.87;;;473.80;;
14984;SDS011;7588;62.368;25.902;2023-07-20T02:36:52;536.70;;;505.93;;
14984;SDS011;7588;62.368;25.902;2023-07-20T02:39:21;508.57;;;478.93;;
14984;SDS011;7588;62.368;25.902;2023-07-20T02:41:47;504.30;;;473.63;;
14984;SDS011;7588;62.368;25.902;2023-07-20T02:44:13;522.40;;;491.70;;
14984;SDS011;7588;62.368;25.902;2023-07-20T02:46:39;525.07;;;494.10;;
14984;SDS011;7588;62.368;25.902;2023-07-20T02:49:05;541.03;;;509.50;;
14984;SDS011;7588;62.368;25.902;2023-07-20T02:51:31;514.03;;;483.03;;
14984;SDS011;7588;62.368;25.902;2023-07-20T02:53:57;503.13;;;472.73;;
14984;SDS011;7588;62.368;25.902;2023-07-20T02:56:24;538.83;;;507.37;;
14984;SDS011;7588;62.368;25.902;2023-07-20T02:58:49;555.80;;;523.80;;
14984;SDS011;7588;62.368;25.902;2023-07-20T03:01:15;520.60;;;489.93;;
14984;SDS011;7588;62.368;25.902;2023-07-20T03:03:42;525.90;;;495.27;;
14984;SDS011;7588;62.368;25.902;2023-07-20T03:06:11;547.33;;;516.57;;
14984;SDS011;7588;62.368;25.902;2023-07-20T03:08:38;532.27;;;501.37;;
14984;SDS011;7588;62.368;25.902;2023-07-20T03:11:03;535.57;;;503.40;;
14984;SDS011;7588;62.368;25.902;2023-07-20T03:13:29;546.93;;;514.97;;
14984;SDS011;7588;62.368;25.902;2023-07-20T03:15:55;595.60;;;561.13;;
14984;SDS011;7588;62.368;25.902;2023-07-20T03:18:20;566.83;;;533.20;;
14984;SDS011;7588;62.368;25.902;2023-07-20T03:20:46;539.37;;;508.37;;
14984;SDS011;7588;62.368;25.902;2023-07-20T03:23:13;569.83;;;538.27;;
14984;SDS011;7588;62.368;25.902;2023-07-20T03:25:40;574.57;;;541.17;;
14984;SDS011;7588;62.368;25.902;2023-07-20T03:28:06;578.17;;;544.63;;
14984;SDS011;7588;62.368;25.902;2023-07-20T03:30:32;556.53;;;524.70;;
14984;SDS011;7588;62.368;25.902;2023-07-20T03:32:58;551.27;;;519.17;;
14984;SDS011;7588;62.368;25.902;2023-07-20T03:35:24;551.43;;;520.10;;
14984;SDS011;7588;62.368;25.902;2023-07-20T03:37:49;580.80;;;547.67;;
14984;SDS011;7588;62.368;25.902;2023-07-20T03:40:15;511.20;;;483.07;;
14984;SDS011;7588;62.368;25.902;2023-07-20T03:42:41;569.77;;;538.10;;
14984;SDS011;7588;62.368;25.902;2023-07-20T03:45:07;533.47;;;504.93;;
14984;SDS011;7588;62.368;25.902;2023-07-20T03:47:33;534.53;;;505.50;;
14984;SDS011;7588;62.368;25.902;2023-07-20T03:49:59;540.60;;;509.90;;
14984;SDS011;7588;62.368;25.902;2023-07-20T03:52:24;522.40;;;493.03;;
14984;SDS011;7588;62.368;25.902;2023-07-20T03:54:50;518.93;;;490.27;;
14984;SDS011;7588;62.368;25.902;2023-07-20T03:57:18;521.60;;;491.80;;
14984;SDS011;7588;62.368;25.902;2023-07-20T03:59:45;493.53;;;465.47;;
14984;SDS011;7588;62.368;25.902;2023-07-20T04:02:11;508.47;;;479.33;;
14984;SDS011;7588;62.368;25.902;2023-07-20T04:04:37;498.00;;;470.63;;
14984;SDS011;7588;62.368;25.902;2023-07-20T04:07:03;483.50;;;457.63;;
14984;SDS011;7588;62.368;25.902;2023-07-20T04:09:29;473.60;;;447.33;;
14984;SDS011;7588;62.368;25.902;2023-07-20T04:11:56;421.20;;;399.13;;
14984;SDS011;7588;62.368;25.902;2023-07-20T04:14:22;434.05;;;411.38;;
14984;SDS011;7588;62.368;25.902;2023-07-20T04:16:48;449.60;;;426.17;;
14984;SDS011;7588;62.368;25.902;2023-07-20T04:19:13;432.50;;;409.47;;
14984;SDS011;7588;62.368;25.902;2023-07-20T04:21:39;397.63;;;377.05;;
14984;SDS011;7588;62.368;25.902;2023-07-20T04:24:08;375.15;;;355.90;;
14984;SDS011;7588;62.368;25.902;2023-07-20T04:26:33;343.33;;;326.58;;
14984;SDS011;7588;62.368;25.902;2023-07-20T04:29:00;315.48;;;299.80;;
14984;SDS011;7588;62.368;25.902;2023-07-20T04:31:26;328.63;;;313.25;;
14984;SDS011;7588;62.368;25.902;2023-07-20T04:33:51;331.27;;;315.02;;
14984;SDS011;7588;62.368;25.902;2023-07-20T04:36:17;231.57;;;220.35;;
14984;SDS011;7588;62.368;25.902;2023-07-20T04:38:47;229.68;;;219.25;;
14984;SDS011;7588;62.368;25.902;2023-07-20T04:41:13;184.95;;;177.48;;
14984;SDS011;7588;62.368;25.902;2023-07-20T04:43:42;181.48;;;173.80;;
14984;SDS011;7588;62.368;25.902;2023-07-20T04:46:08;174.15;;;167.13;;
14984;SDS011;7588;62.368;25.902;2023-07-20T04:48:35;163.45;;;157.07;;
14984;SDS011;7588;62.368;25.902;2023-07-20T04:51:00;169.25;;;162.80;;
14984;SDS011;7588;62.368;25.902;2023-07-20T04:53:26;166.73;;;160.32;;
14984;SDS011;7588;62.368;25.902;2023-07-20T04:55:52;137.93;;;132.68;;
14984;SDS011;7588;62.368;25.902;2023-07-20T04:58:19;130.85;;;125.95;;
14984;SDS011;7588;62.368;25.902;2023-07-20T05:00:47;151.23;;;145.57;;
14984;SDS011;7588;62.368;25.902;2023-07-20T05:03:13;107.53;;;103.55;;
14984;SDS011;7588;62.368;25.902;2023-07-20T05:05:39;132.23;;;127.22;;
14984;SDS011;7588;62.368;25.902;2023-07-20T05:08:05;118.93;;;114.38;;
14984;SDS011;7588;62.368;25.902;2023-07-20T05:10:31;88.53;;;85.13;;
14984;SDS011;7588;62.368;25.902;2023-07-20T05:12:57;75.60;;;72.80;;
14984;SDS011;7588;62.368;25.902;2023-07-20T05:15:23;58.53;;;56.30;;
14984;SDS011;7588;62.368;25.902;2023-07-20T05:17:49;57.03;;;54.83;;
14984;SDS011;7588;62.368;25.902;2023-07-20T05:20:15;58.20;;;55.90;;
14984;SDS011;7588;62.368;25.902;2023-07-20T05:22:41;52.53;;;50.53;;
14984;SDS011;7588;62.368;25.902;2023-07-20T05:25:08;61.05;;;58.67;;
14984;SDS011;7588;62.368;25.902;2023-07-20T05:27:36;58.75;;;56.50;;
14984;SDS011;7588;62.368;25.902;2023-07-20T05:30:03;50.30;;;48.35;;
14984;SDS011;7588;62.368;25.902;2023-07-20T05:32:30;50.22;;;48.30;;
14984;SDS011;7588;62.368;25.902;2023-07-20T05:34:55;57.67;;;55.35;;
14984;SDS011;7588;62.368;25.902;2023-07-20T05:37:21;57.38;;;55.08;;
14984;SDS011;7588;62.368;25.902;2023-07-20T05:39:47;56.80;;;54.67;;
14984;SDS011;7588;62.368;25.902;2023-07-20T05:42:13;52.25;;;50.30;;
14984;SDS011;7588;62.368;25.902;2023-07-20T05:44:39;66.90;;;64.28;;
14984;SDS011;7588;62.368;25.902;2023-07-20T05:47:05;53.00;;;50.95;;
14984;SDS011;7588;62.368;25.902;2023-07-20T05:49:31;51.15;;;49.15;;
14984;SDS011;7588;62.368;25.902;2023-07-20T05:51:57;53.67;;;51.63;;
14984;SDS011;7588;62.368;25.902;2023-07-20T05:54:26;57.72;;;55.45;;
14984;SDS011;7588;62.368;25.902;2023-07-20T05:56:52;48.83;;;46.92;;
14984;SDS011;7588;62.368;25.902;2023-07-20T05:59:18;58.15;;;55.90;;
14984;SDS011;7588;62.368;25.902;2023-07-20T06:01:45;49.67;;;47.72;;
14984;SDS011;7588;62.368;25.902;2023-07-20T06:04:12;44.42;;;42.72;;
14984;SDS011;7588;62.368;25.902;2023-07-20T06:06:37;43.38;;;41.53;;
14984;SDS011;7588;62.368;25.902;2023-07-20T06:09:03;48.17;;;46.35;;
14984;SDS011;7588;62.368;25.902;2023-07-20T06:11:30;41.78;;;40.15;;
14984;SDS011;7588;62.368;25.902;2023-07-20T06:13:56;48.47;;;46.58;;
14984;SDS011;7588;62.368;25.902;2023-07-20T06:16:22;38.83;;;37.33;;
14984;SDS011;7588;62.368;25.902;2023-07-20T06:18:48;42.13;;;40.33;;
14984;SDS011;7588;62.368;25.902;2023-07-20T06:21:14;46.33;;;44.53;;
14984;SDS011;7588;62.368;25.902;2023-07-20T06:23:40;42.60;;;40.97;;
14984;SDS011;7588;62.368;25.902;2023-07-20T06:26:06;41.78;;;40.17;;
14984;SDS011;7588;62.368;25.902;2023-07-20T06:28:32;44.60;;;42.80;;
14984;SDS011;7588;62.368;25.902;2023-07-20T06:30:59;46.05;;;44.25;;
14984;SDS011;7588;62.368;25.902;2023-07-20T06:33:25;45.88;;;44.08;;
14984;SDS011;7588;62.368;25.902;2023-07-20T06:35:51;49.22;;;47.35;;
14984;SDS011;7588;62.368;25.902;2023-07-20T06:38:17;59.08;;;56.78;;
14984;SDS011;7588;62.368;25.902;2023-07-20T06:40:45;46.38;;;44.58;;
14984;SDS011;7588;62.368;25.902;2023-07-20T06:43:11;40.17;;;38.58;;
14984;SDS011;7588;62.368;25.902;2023-07-20T06:45:37;46.80;;;44.97;;
14984;SDS011;7588;62.368;25.902;2023-07-20T06:48:03;55.45;;;53.25;;
14984;SDS011;7588;62.368;25.902;2023-07-20T06:50:29;61.85;;;59.33;;
14984;SDS011;7588;62.368;25.902;2023-07-20T06:52:55;54.70;;;52.60;;
14984;SDS011;7588;62.368;25.902;2023-07-20T06:55:20;57.85;;;55.60;;
14984;SDS011;7588;62.368;25.902;2023-07-20T06:57:46;46.65;;;44.83;;
14984;SDS011;7588;62.368;25.902;2023-07-20T07:00:12;49.17;;;47.30;;
14984;SDS011;7588;62.368;25.902;2023-07-20T07:02:38;65.13;;;62.65;;
14984;SDS011;7588;62.368;25.902;2023-07-20T07:05:04;46.75;;;44.95;;
14984;SDS011;7588;62.368;25.902;2023-07-20T07:07:30;62.90;;;60.42;;
14984;SDS011;7588;62.368;25.902;2023-07-20T07:09:56;52.22;;;50.25;;
14984;SDS011;7588;62.368;25.902;2023-07-20T07:12:21;57.95;;;55.50;;
14984;SDS011;7588;62.368;25.902;2023-07-20T07:14:47;52.85;;;50.60;;
14984;SDS011;7588;62.368;25.902;2023-07-20T07:17:13;69.75;;;67.07;;
14984;SDS011;7588;62.368;25.902;2023-07-20T07:19:39;57.45;;;55.28;;
14984;SDS011;7588;62.368;25.902;2023-07-20T07:22:05;69.03;;;66.15;;
14984;SDS011;7588;62.368;25.902;2023-07-20T07:24:31;80.32;;;77.25;;
14984;SDS011;7588;62.368;25.902;2023-07-20T07:27:00;67.75;;;65.15;;
14984;SDS011;7588;62.368;25.902;2023-07-20T07:29:26;77.07;;;73.95;;
14984;SDS011;7588;62.368;25.902;2023-07-20T07:31:52;75.55;;;72.65;;
14984;SDS011;7588;62.368;25.902;2023-07-20T07:34:17;60.92;;;58.58;;
14984;SDS011;7588;62.368;25.902;2023-07-20T07:36:43;70.15;;;67.45;;
14984;SDS011;7588;62.368;25.902;2023-07-20T07:39:10;73.30;;;70.50;;
14984;SDS011;7588;62.368;25.902;2023-07-20T07:41:35;69.53;;;66.90;;
14984;SDS011;7588;62.368;25.902;2023-07-20T07:44:01;59.83;;;57.55;;
14984;SDS011;7588;62.368;25.902;2023-07-20T07:46:27;57.83;;;55.63;;
14984;SDS011;7588;62.368;25.902;2023-07-20T07:48:53;72.43;;;69.68;;
14984;SDS011;7588;62.368;25.902;2023-07-20T07:51:18;80.45;;;77.28;;
14984;SDS011;7588;62.368;25.902;2023-07-20T07:53:45;87.88;;;84.22;;
14984;SDS011;7588;62.368;25.902;2023-07-20T07:56:11;74.82;;;71.95;;
14984;SDS011;7588;62.368;25.902;2023-07-20T07:58:37;87.20;;;83.90;;
14984;SDS011;7588;62.368;25.902;2023-07-20T08:01:03;62.85;;;60.38;;
14984;SDS011;7588;62.368;25.902;2023-07-20T08:03:29;77.38;;;74.38;;
14984;SDS011;7588;62.368;25.902;2023-07-20T08:05:55;72.80;;;70.05;;
14984;SDS011;7588;62.368;25.902;2023-07-20T08:08:21;33.47;;;31.92;;
14984;SDS011;7588;62.368;25.902;2023-07-20T08:10:47;64.88;;;62.33;;
14984;SDS011;7588;62.368;25.902;2023-07-20T08:13:13;67.13;;;64.53;;
14984;SDS011;7588;62.368;25.902;2023-07-20T08:15:39;62.80;;;60.25;;
14984;SDS011;7588;62.368;25.902;2023-07-20T08:18:10;53.25;;;51.22;;
14984;SDS011;7588;62.368;25.902;2023-07-20T08:20:36;71.88;;;69.18;;
14984;SDS011;7588;62.368;25.902;2023-07-20T08:23:02;48.35;;;46.50;;
14984;SDS011;7588;62.368;25.902;2023-07-20T08:25:27;51.42;;;49.42;;
14984;SDS011;7588;62.368;25.902;2023-07-20T08:27:53;81.15;;;78.00;;
14984;SDS011;7588;62.368;25.902;2023-07-20T08:30:21;69.15;;;66.53;;
14984;SDS011;7588;62.368;25.902;2023-07-20T08:32:48;68.00;;;65.35;;
14984;SDS011;7588;62.368;25.902;2023-07-20T08:35:14;71.18;;;68.50;;
14984;SDS011;7588;62.368;25.902;2023-07-20T08:37:40;71.30;;;68.45;;
14984;SDS011;7588;62.368;25.902;2023-07-20T08:40:06;73.13;;;70.28;;
14984;SDS011;7588;62.368;25.902;2023-07-20T08:42:33;52.85;;;50.85;;
14984;SDS011;7588;62.368;25.902;2023-07-20T08:44:59;62.72;;;60.25;;
14984;SDS011;7588;62.368;25.902;2023-07-20T08:47:26;72.00;;;69.25;;
14984;SDS011;7588;62.368;25.902;2023-07-20T08:49:52;72.70;;;69.95;;
14984;SDS011;7588;62.368;25.902;2023-07-20T08:52:20;75.45;;;72.65;;
14984;SDS011;7588;62.368;25.902;2023-07-20T08:54:46;61.60;;;59.25;;
14984;SDS011;7588;62.368;25.902;2023-07-20T08:57:13;71.32;;;68.68;;
14984;SDS011;7588;62.368;25.902;2023-07-20T08:59:39;56.97;;;54.83;;
14984;SDS011;7588;62.368;25.902;2023-07-20T09:02:06;63.20;;;60.78;;
14984;SDS011;7588;62.368;25.902;2023-07-20T09:04:33;79.20;;;76.22;;
14984;SDS011;7588;62.368;25.902;2023-07-20T09:06:59;63.13;;;60.72;;
14984;SDS011;7588;62.368;25.902;2023-07-20T09:09:25;68.32;;;65.68;;
14984;SDS011;7588;62.368;25.902;2023-07-20T09:11:50;73.70;;;70.95;;
14984;SDS011;7588;62.368;25.902;2023-07-20T09:14:16;58.25;;;56.05;;
14984;SDS011;7588;62.368;25.902;2023-07-20T09:16:54;55.53;;;53.35;;
14984;SDS011;7588;62.368;25.902;2023-07-20T09:19:21;65.13;;;62.65;;
14984;SDS011;7588;62.368;25.902;2023-07-20T09:21:50;74.47;;;71.68;;
14984;SDS011;7588;62.368;25.902;2023-07-20T09:24:20;68.38;;;65.63;;
14984;SDS011;7588;62.368;25.902;2023-07-20T09:26:47;52.08;;;50.08;;
14984;SDS011;7588;62.368;25.902;2023-07-20T09:29:13;65.63;;;63.13;;
14984;SDS011;7588;62.368;25.902;2023-07-20T09:31:41;57.50;;;55.30;;
14984;SDS011;7588;62.368;25.902;2023-07-20T09:34:07;65.10;;;62.63;;
14984;SDS011;7588;62.368;25.902;2023-07-20T09:36:34;53.70;;;51.70;;
14984;SDS011;7588;62.368;25.902;2023-07-20T09:39:02;75.88;;;73.03;;
14984;SDS011;7588;62.368;25.902;2023-07-20T09:41:29;92.63;;;89.07;;
14984;SDS011;7588;62.368;25.902;2023-07-20T09:43:55;71.90;;;69.05;;
14984;SDS011;7588;62.368;25.902;2023-07-20T09:46:21;105.85;;;101.82;;
14984;SDS011;7588;62.368;25.902;2023-07-20T09:48:53;69.85;;;67.22;;
14984;SDS011;7588;62.368;25.902;2023-07-20T09:51:21;67.70;;;65.00;;
14984;SDS011;7588;62.368;25.902;2023-07-20T09:53:48;84.55;;;81.05;;
14984;SDS011;7588;62.368;25.902;2023-07-20T09:56:17;74.03;;;71.18;;
14984;SDS011;7588;62.368;25.902;2023-07-20T09:58:47;112.68;;;108.45;;
14984;SDS011;7588;62.368;25.902;2023-07-20T10:01:13;78.70;;;75.68;;
14984;SDS011;7588;62.368;25.902;2023-07-20T10:03:45;67.13;;;64.55;;
14984;SDS011;7588;62.368;25.902;2023-07-20T10:06:12;58.90;;;56.58;;
14984;SDS011;7588;62.368;25.902;2023-07-20T10:08:44;58.55;;;56.20;;
14984;SDS011;7588;62.368;25.902;2023-07-20T10:11:12;58.88;;;56.58;;
14984;SDS011;7588;62.368;25.902;2023-07-20T10:13:40;63.60;;;61.20;;
14984;SDS011;7588;62.368;25.902;2023-07-20T10:16:12;62.47;;;59.97;;
14984;SDS011;7588;62.368;25.902;2023-07-20T10:18:47;56.03;;;53.83;;
14984;SDS011;7588;62.368;25.902;2023-07-20T10:21:20;63.38;;;60.60;;
14984;SDS011;7588;62.368;25.902;2023-07-20T10:23:49;57.97;;;55.33;;
14984;SDS011;7588;62.368;25.902;2023-07-20T10:26:15;60.20;;;57.78;;
14984;SDS011;7588;62.368;25.902;2023-07-20T10:28:40;56.67;;;54.15;;
14984;SDS011;7588;62.368;25.902;2023-07-20T10:31:10;51.03;;;49.03;;
14984;SDS011;7588;62.368;25.902;2023-07-20T10:33:38;61.47;;;59.13;;
14984;SDS011;7588;62.368;25.902;2023-07-20T10:36:05;66.15;;;63.60;;
14984;SDS011;7588;62.368;25.902;2023-07-20T10:41:28;91.05;;;87.60;;
14984;SDS011;7588;62.368;25.902;2023-07-20T10:44:01;84.28;;;81.00;;
14984;SDS011;7588;62.368;25.902;2023-07-20T10:49:12;82.45;;;79.22;;
14984;SDS011;7588;62.368;25.902;2023-07-20T10:51:40;55.63;;;53.50;;
14984;SDS011;7588;62.368;25.902;2023-07-20T10:56:41;83.95;;;80.75;;
14984;SDS011;7588;62.368;25.902;2023-07-20T10:59:18;72.25;;;69.53;;
14984;SDS011;7588;62.368;25.902;2023-07-20T11:01:54;75.13;;;72.20;;
14984;SDS011;7588;62.368;25.902;2023-07-20T11:04:37;84.53;;;81.18;;
14984;SDS011;7588;62.368;25.902;2023-07-20T11:07:04;89.78;;;86.35;;
14984;SDS011;7588;62.368;25.902;2023-07-20T11:09:38;75.30;;;72.45;;
14984;SDS011;7588;62.368;25.902;2023-07-20T11:14:57;68.45;;;65.70;;
14984;SDS011;7588;62.368;25.902;2023-07-20T11:17:32;91.65;;;88.20;;
14984;SDS011;7588;62.368;25.902;2023-07-20T11:19:59;86.90;;;83.60;;
14984;SDS011;7588;62.368;25.902;2023-07-20T11:22:26;89.65;;;86.32;;
14984;SDS011;7588;62.368;25.902;2023-07-20T11:24:56;95.70;;;91.95;;
14984;SDS011;7588;62.368;25.902;2023-07-20T11:27:22;61.70;;;59.42;;
14984;SDS011;7588;62.368;25.902;2023-07-20T11:29:47;60.35;;;57.97;;
14984;SDS011;7588;62.368;25.902;2023-07-20T11:32:20;47.47;;;45.63;;
14984;SDS011;7588;62.368;25.902;2023-07-20T11:34:49;55.25;;;53.22;;
14984;SDS011;7588;62.368;25.902;2023-07-20T11:37:16;49.55;;;47.70;;
14984;SDS011;7588;62.368;25.902;2023-07-20T11:39:43;43.83;;;42.15;;
14984;SDS011;7588;62.368;25.902;2023-07-20T11:42:08;43.45;;;41.72;;
14984;SDS011;7588;62.368;25.902;2023-07-20T11:44:35;40.53;;;39.03;;
14984;SDS011;7588;62.368;25.902;2023-07-20T11:49:29;32.60;;;31.40;;
14984;SDS011;7588;62.368;25.902;2023-07-20T11:51:59;37.95;;;36.38;;
14984;SDS011;7588;62.368;25.902;2023-07-20T11:54:25;50.03;;;47.97;;
14984;SDS011;7588;62.368;25.902;2023-07-20T11:56:54;40.60;;;39.05;;
14984;SDS011;7588;62.368;25.902;2023-07-20T11:59:21;46.50;;;44.67;;
14984;SDS011;7588;62.368;25.902;2023-07-20T12:01:46;57.85;;;55.17;;
14984;SDS011;7588;62.368;25.902;2023-07-20T12:04:12;65.15;;;62.63;;
14984;SDS011;7588;62.368;25.902;2023-07-20T12:06:38;82.90;;;79.75;;
14984;SDS011;7588;62.368;25.902;2023-07-20T12:09:04;77.38;;;74.43;;
14984;SDS011;7588;62.368;25.902;2023-07-20T12:11:38;79.60;;;76.35;;
14984;SDS011;7588;62.368;25.902;2023-07-20T12:14:06;62.83;;;60.03;;
14984;SDS011;7588;62.368;25.902;2023-07-20T12:16:32;58.60;;;56.28;;
14984;SDS011;7588;62.368;25.902;2023-07-20T12:19:04;56.58;;;54.35;;
14984;SDS011;7588;62.368;25.902;2023-07-20T12:21:34;54.47;;;52.35;;
14984;SDS011;7588;62.368;25.902;2023-07-20T12:24:05;53.78;;;51.63;;
14984;SDS011;7588;62.368;25.902;2023-07-20T12:26:32;59.33;;;56.95;;
14984;SDS011;7588;62.368;25.902;2023-07-20T12:28:59;84.70;;;81.40;;
14984;SDS011;7588;62.368;25.902;2023-07-20T12:31:25;121.85;;;117.18;;
14984;SDS011;7588;62.368;25.902;2023-07-20T12:33:52;122.32;;;117.63;;
14984;SDS011;7588;62.368;25.902;2023-07-20T12:36:20;121.90;;;117.15;;
14984;SDS011;7588;62.368;25.902;2023-07-20T12:38:46;145.40;;;139.63;;
14984;SDS011;7588;62.368;25.902;2023-07-20T12:41:12;152.00;;;146.00;;
14984;SDS011;7588;62.368;25.902;2023-07-20T12:43:39;143.23;;;137.70;;
14984;SDS011;7588;62.368;25.902;2023-07-20T12:46:06;139.90;;;134.45;;
14984;SDS011;7588;62.368;25.902;2023-07-20T12:48:32;142.15;;;136.68;;
14984;SDS011;7588;62.368;25.902;2023-07-20T12:50:58;145.32;;;139.77;;
14984;SDS011;7588;62.368;25.902;2023-07-20T12:53:24;142.38;;;136.82;;
14984;SDS011;7588;62.368;25.902;2023-07-20T12:55:49;142.98;;;137.32;;
14984;SDS011;7588;62.368;25.902;2023-07-20T12:58:15;148.13;;;142.07;;
14984;SDS011;7588;62.368;25.902;2023-07-20T13:00:41;148.93;;;142.98;;
14984;SDS011;7588;62.368;25.902;2023-07-20T13:03:07;159.13;;;152.65;;
14984;SDS011;7588;62.368;25.902;2023-07-20T13:05:33;158.52;;;152.15;;
14984;SDS011;7588;62.368;25.902;2023-07-20T13:08:00;167.95;;;160.90;;
14984;SDS011;7588;62.368;25.902;2023-07-20T13:10:27;150.75;;;144.68;;
14984;SDS011;7588;62.368;25.902;2023-07-20T13:12:54;155.68;;;149.75;;
14984;SDS011;7588;62.368;25.902;2023-07-20T13:15:19;168.63;;;161.95;;
14984;SDS011;7588;62.368;25.902;2023-07-20T13:17:45;166.80;;;159.75;;
14984;SDS011;7588;62.368;25.902;2023-07-20T13:20:11;166.52;;;160.02;;
14984;SDS011;7588;62.368;25.902;2023-07-20T13:22:37;163.25;;;156.63;;
14984;SDS011;7588;62.368;25.902;2023-07-20T13:25:03;182.55;;;174.82;;
14984;SDS011;7588;62.368;25.902;2023-07-20T13:27:29;187.23;;;179.35;;
14984;SDS011;7588;62.368;25.902;2023-07-20T13:29:56;244.25;;;233.57;;
14984;SDS011;7588;62.368;25.902;2023-07-20T13:32:22;255.55;;;244.55;;
14984;SDS011;7588;62.368;25.902;2023-07-20T13:34:48;354.90;;;338.33;;
14984;SDS011;7588;62.368;25.902;2023-07-20T13:37:14;309.08;;;295.13;;
14984;SDS011;7588;62.368;25.902;2023-07-20T13:39:41;312.52;;;298.40;;
14984;SDS011;7588;62.368;25.902;2023-07-20T13:42:07;346.60;;;331.10;;
14984;SDS011;7588;62.368;25.902;2023-07-20T13:44:34;376.35;;;359.38;;
14984;SDS011;7588;62.368;25.902;2023-07-20T13:47:00;312.42;;;298.73;;
14984;SDS011;7588;62.368;25.902;2023-07-20T13:49:26;205.77;;;197.30;;
14984;SDS011;7588;62.368;25.902;2023-07-20T13:51:52;250.10;;;239.63;;
14984;SDS011;7588;62.368;25.902;2023-07-20T13:54:18;251.73;;;240.57;;
14984;SDS011;7588;62.368;25.902;2023-07-20T13:56:44;141.93;;;136.60;;
14984;SDS011;7588;62.368;25.902;2023-07-20T13:59:09;166.60;;;160.10;;
14984;SDS011;7588;62.368;25.902;2023-07-20T14:01:35;138.82;;;133.60;;
14984;SDS011;7588;62.368;25.902;2023-07-20T14:04:01;125.53;;;120.80;;
14984;SDS011;7588;62.368;25.902;2023-07-20T14:06:29;120.38;;;115.93;;
14984;SDS011;7588;62.368;25.902;2023-07-20T14:08:55;134.82;;;129.63;;
14984;SDS011;7588;62.368;25.902;2023-07-20T14:11:22;132.30;;;127.40;;
14984;SDS011;7588;62.368;25.902;2023-07-20T14:13:48;102.05;;;98.25;;
14984;SDS011;7588;62.368;25.902;2023-07-20T14:16:15;122.45;;;117.93;;
14984;SDS011;7588;62.368;25.902;2023-07-20T14:18:40;136.43;;;131.32;;
14984;SDS011;7588;62.368;25.902;2023-07-20T14:21:06;142.70;;;137.50;;
14984;SDS011;7588;62.368;25.902;2023-07-20T14:23:32;128.82;;;124.05;;
14984;SDS011;7588;62.368;25.902;2023-07-20T14:25:58;127.53;;;122.85;;
14984;SDS011;7588;62.368;25.902;2023-07-20T14:28:24;130.15;;;125.38;;